Time;durP1;ratioP1;P1;durP2;ratioP2;P2;SDS_P1;SDS_P2;PMS_P1;PMS_P2;Temp;Humidity;BMP_temperature;BMP_pressure;BME280_temperature;BME280_humidity;BME280_pressure;Samples;Min_cycle;Max_cycle;Signal;HPM_P1;HPM_P2
2022/07/25 00:01:41;;;;;;;3.05;2.00;;;19.70;1.00;;;;;;5005079;28;20273;-84
2022/07/25 00:04:07;;;;;;;2.00;1.80;;;18.80;1.00;;;;;;5006863;28;20218;-84
2022/07/25 00:06:36;;;;;;;2.50;1.90;;;18.70;1.00;;;;;;5006746;28;20192;-85
2022/07/25 00:09:03;;;;;;;2.65;2.10;;;18.30;99.90;;;;;;5013306;28;20249;-85
2022/07/25 00:11:28;;;;;;;3.85;2.28;;;18.20;74.60;;;;;;5004684;28;20230;-85
2022/07/25 00:13:54;;;;;;;2.53;2.33;;;19.30;1.00;;;;;;5003732;28;20681;-85
2022/07/25 00:16:19;;;;;;;2.30;2.00;;;18.70;99.90;;;;;;5004681;28;20207;-84
2022/07/25 00:18:45;;;;;;;2.42;2.13;;;18.00;99.90;;;;;;5005703;28;20598;-85
2022/07/25 00:21:10;;;;;;;2.50;2.30;;;19.50;1.00;;;;;;5004600;28;20893;-85
2022/07/25 00:23:36;;;;;;;2.67;2.13;;;19.50;1.00;;;;;;5004271;28;20563;-84
2022/07/25 00:26:02;;;;;;;4.10;2.05;;;18.10;99.90;;;;;;5003056;28;20215;-84
2022/07/25 00:28:27;;;;;;;3.95;2.00;;;18.10;99.90;;;;;;5003957;28;20183;-84
2022/07/25 00:30:53;;;;;;;3.05;2.00;;;19.40;1.00;;;;;;5004029;28;20642;-85
2022/07/25 00:33:19;;;;;;;3.90;2.50;;;18.10;99.90;;;;;;5004263;28;20206;-84
2022/07/25 00:35:44;;;;;;;3.42;2.47;;;19.70;1.00;;;;;;5004119;28;20179;-85
2022/07/25 00:38:10;;;;;;;2.33;2.08;;;17.90;1.00;;;;;;5003748;28;20186;-85
2022/07/25 00:40:36;;;;;;;2.92;2.20;;;18.10;99.90;;;;;;5004299;28;20199;-85
2022/07/25 00:43:01;;;;;;;2.22;1.80;;;19.80;30.80;;;;;;5004073;28;20557;-85
2022/07/25 00:45:27;;;;;;;2.10;1.98;;;17.90;1.00;;;;;;5004351;28;20184;-85
2022/07/25 00:47:52;;;;;;;3.55;2.00;;;17.90;1.00;;;;;;5004342;28;20202;-85
2022/07/25 00:50:18;;;;;;;3.10;2.30;;;18.40;1.00;;;;;;5004214;28;20184;-84
2022/07/25 00:52:44;;;;;;;2.70;2.40;;;17.90;1.00;;;;;;5003809;28;20729;-84
2022/07/25 00:55:12;;;;;;;2.55;2.15;;;19.10;1.00;;;;;;5006159;28;20184;-84
2022/07/25 00:57:37;;;;;;;3.83;2.38;;;17.70;1.00;;;;;;5009175;28;20184;-84
2022/07/25 01:00:09;;;;;;;3.40;2.35;;;18.90;1.00;;;;;;5007482;28;20189;-84
2022/07/25 01:02:34;;;;;;;2.63;2.30;;;17.60;1.00;;;;;;5008249;28;20233;-84
2022/07/25 01:05:00;;;;;;;2.55;2.28;;;19.10;1.00;;;;;;5007466;28;20219;-85
2022/07/25 01:07:26;;;;;;;6.68;2.40;;;18.40;99.90;;;;;;5007586;28;20183;-84
2022/07/25 01:09:52;;;;;;;6.03;2.42;;;19.80;99.90;;;;;;5008815;28;20184;-84
2022/07/25 01:12:18;;;;;;;2.45;2.25;;;19.80;99.90;;;;;;5007252;28;20234;-84
2022/07/25 01:14:44;;;;;;;2.30;2.10;;;17.70;1.00;;;;;;5007556;28;20207;-85
2022/07/25 01:17:09;;;;;;;3.40;2.33;;;17.70;1.00;;;;;;5007324;28;20201;-85
2022/07/25 01:19:35;;;;;;;2.22;1.98;;;19.10;1.00;;;;;;5006939;28;20283;-85
2022/07/25 01:22:00;;;;;;;2.40;2.20;;;17.80;99.90;;;;;;5008336;28;20266;-84
2022/07/25 01:24:27;;;;;;;2.30;2.10;;;19.20;99.90;;;;;;5007513;28;20188;-85
2022/07/25 01:26:53;;;;;;;2.25;2.05;;;18.00;1.00;;;;;;5008545;28;20242;-85
2022/07/25 01:29:18;;;;;;;4.30;2.13;;;17.50;1.00;;;;;;5006773;28;20191;-85
2022/07/25 01:31:44;;;;;;;2.45;2.25;;;17.50;1.00;;;;;;5006753;28;20207;-84
2022/07/25 01:34:10;;;;;;;4.03;2.30;;;19.10;99.90;;;;;;5007048;28;20207;-85
2022/07/25 01:36:35;;;;;;;2.30;2.10;;;19.50;99.90;;;;;;5007251;28;20521;-84
2022/07/25 01:39:01;;;;;;;2.50;2.30;;;19.20;99.90;;;;;;5006533;28;20250;-84
2022/07/25 01:41:26;;;;;;;3.00;2.22;;;17.70;99.90;;;;;;5007158;28;20215;-84
2022/07/25 01:43:52;;;;;;;2.53;2.33;;;17.50;1.00;;;;;;5006547;28;20180;-84
2022/07/25 01:46:17;;;;;;;2.70;2.30;;;17.40;1.00;;;;;;5007219;28;20250;-85
2022/07/25 01:48:43;;;;;;;5.03;2.42;;;18.00;1.00;;;;;;5006532;28;20183;-84
2022/07/25 01:51:11;;;;;;;2.95;2.28;;;17.40;86.60;;;;;;5007129;28;20210;-85
2022/07/25 01:53:37;;;;;;;2.63;2.25;;;17.50;99.90;;;;;;5007836;28;20207;-85
2022/07/25 01:56:04;;;;;;;2.47;2.28;;;18.90;1.00;;;;;;5008041;28;20247;-84
2022/07/25 01:58:30;;;;;;;3.08;2.65;;;17.20;39.10;;;;;;5006396;28;20558;-85
2022/07/25 02:00:56;;;;;;;3.10;2.55;;;17.20;99.90;;;;;;5006798;28;20203;-84
2022/07/25 02:03:30;;;;;;;2.70;2.50;;;17.40;94.10;;;;;;5007664;28;20210;-84
2022/07/25 02:06:07;;;;;;;3.72;3.05;;;17.20;1.00;;;;;;5006068;28;20237;-84
2022/07/25 02:08:33;;;;;;;2.38;2.17;;;17.20;99.90;;;;;;5007900;28;20191;-84
2022/07/25 02:10:59;;;;;;;3.67;2.42;;;17.10;99.90;;;;;;5006509;28;20212;-84
2022/07/25 02:13:25;;;;;;;3.38;2.78;;;17.00;1.00;;;;;;5013896;28;20798;-84
2022/07/25 02:15:51;;;;;;;2.92;2.60;;;17.60;1.00;;;;;;5006424;28;20190;-84
2022/07/25 02:18:17;;;;;;;3.15;2.95;;;16.90;1.00;;;;;;5007860;28;20179;-85
2022/07/25 02:20:43;;;;;;;2.83;2.60;;;18.30;1.00;;;;;;5006225;28;20192;-84
2022/07/25 02:23:08;;;;;;;2.78;2.33;;;18.80;1.00;;;;;;5006122;28;20182;-84
2022/07/25 02:25:34;;;;;;;3.75;2.85;;;18.20;1.00;;;;;;5006573;28;20183;-83
2022/07/25 02:28:00;;;;;;;2.90;2.70;;;17.10;99.90;;;;;;5007359;28;20964;-84
2022/07/25 02:30:26;;;;;;;3.05;2.75;;;18.30;1.00;;;;;;5005878;28;20568;-85
2022/07/25 02:32:52;;;;;;;3.95;3.08;;;16.70;99.90;;;;;;5005779;28;20238;-84
2022/07/25 02:35:17;;;;;;;3.33;3.00;;;18.20;99.90;;;;;;5005813;28;20187;-84
2022/07/25 02:37:43;;;;;;;3.53;2.70;;;16.60;99.90;;;;;;5005811;28;20673;-84
2022/07/25 02:40:09;;;;;;;3.17;2.88;;;17.10;1.00;;;;;;5006157;28;20654;-85
2022/07/25 02:42:34;;;;;;;3.97;2.85;;;16.50;1.00;;;;;;5005841;28;20230;-84
2022/07/25 02:45:00;;;;;;;3.97;2.75;;;16.50;1.00;;;;;;5005936;28;20718;-84
2022/07/25 02:47:26;;;;;;;3.20;2.90;;;18.40;68.90;;;;;;5005798;28;21004;-85
2022/07/25 02:49:51;;;;;;;3.72;3.00;;;18.40;70.00;;;;;;5005909;28;20605;-84
2022/07/25 02:52:17;;;;;;;4.57;3.00;;;17.00;1.00;;;;;;5005217;28;20210;-85
2022/07/25 02:54:43;;;;;;;2.97;2.78;;;16.60;99.90;;;;;;5005541;28;20191;-84
2022/07/25 02:57:08;;;;;;;5.28;3.03;;;16.50;52.20;;;;;;5005692;28;20226;-84
2022/07/25 02:59:34;;;;;;;3.35;2.95;;;17.70;98.50;;;;;;5005309;28;20179;-85
2022/07/25 03:01:59;;;;;;;4.95;2.83;;;17.00;99.90;;;;;;5004469;28;20285;-86
2022/07/25 03:04:25;;;;;;;4.38;3.30;;;16.50;99.90;;;;;;5003230;28;20282;-86
2022/07/25 03:06:51;;;;;;;3.85;3.03;;;16.40;99.90;;;;;;5003522;28;20183;-85
2022/07/25 03:09:16;;;;;;;5.85;3.10;;;16.40;99.90;;;;;;5002018;28;20199;-86
2022/07/25 03:11:42;;;;;;;3.88;3.40;;;16.40;99.90;;;;;;5002747;28;20226;-85
2022/07/25 03:14:07;;;;;;;3.28;3.00;;;16.50;99.90;;;;;;5003043;28;20261;-85
2022/07/25 03:16:33;;;;;;;4.07;3.45;;;17.90;99.90;;;;;;5005375;28;20187;-86
2022/07/25 03:18:59;;;;;;;3.13;2.83;;;18.40;1.00;;;;;;5011025;28;20188;-85
2022/07/25 03:21:24;;;;;;;2.90;2.70;;;16.40;1.00;;;;;;5002802;28;20206;-85
2022/07/25 03:23:50;;;;;;;4.85;3.05;;;16.70;1.00;;;;;;5001738;28;20274;-85
2022/07/25 03:26:16;;;;;;;5.32;3.10;;;16.50;1.00;;;;;;5002762;28;20215;-86
2022/07/25 03:28:41;;;;;;;7.45;2.90;;;16.50;1.00;;;;;;5001955;28;20199;-85
2022/07/25 03:31:07;;;;;;;2.85;2.65;;;16.50;99.90;;;;;;5002949;28;20203;-86
2022/07/25 03:33:32;;;;;;;3.15;2.88;;;18.40;1.00;;;;;;5002990;28;20208;-83
2022/07/25 03:35:58;;;;;;;3.63;3.28;;;18.60;1.00;;;;;;5002328;28;20188;-85
2022/07/25 03:38:23;;;;;;;3.40;2.80;;;17.30;1.00;;;;;;5001646;28;20172;-83
2022/07/25 03:40:49;;;;;;;3.30;3.00;;;18.10;99.90;;;;;;5001751;28;20222;-82
2022/07/25 03:43:15;;;;;;;3.67;3.22;;;16.80;1.00;;;;;;5001707;28;20191;-82
2022/07/25 03:45:41;;;;;;;3.13;2.60;;;18.80;1.00;;;;;;5003256;28;20192;-82
2022/07/25 03:48:06;;;;;;;3.80;3.50;;;16.70;1.00;;;;;;5002781;28;20187;-86
2022/07/25 03:50:32;;;;;;;5.47;3.38;;;16.70;99.90;;;;;;5002732;28;20705;-86
2022/07/25 03:52:57;;;;;;;2.80;2.40;;;17.20;1.00;;;;;;5001570;28;20725;-84
2022/07/25 03:55:23;;;;;;;3.55;3.08;;;16.80;99.90;;;;;;5002764;28;20717;-84
2022/07/25 03:57:49;;;;;;;3.30;2.90;;;16.80;99.90;;;;;;5001992;28;20183;-85
2022/07/25 04:00:14;;;;;;;3.15;2.92;;;16.80;99.90;;;;;;5001559;28;20466;-84
2022/07/25 04:02:40;;;;;;;2.80;2.50;;;17.30;1.00;;;;;;5002950;28;20210;-83
2022/07/25 04:05:06;;;;;;;3.28;2.80;;;16.80;1.00;;;;;;5003518;28;20550;-83
2022/07/25 04:07:32;;;;;;;4.55;3.38;;;16.80;99.90;;;;;;5006734;28;20184;-83
2022/07/25 04:09:58;;;;;;;3.10;2.90;;;18.20;35.60;;;;;;5002833;28;20188;-83
2022/07/25 04:12:24;;;;;;;2.70;2.50;;;17.50;1.00;;;;;;5001828;28;20253;-81
2022/07/25 04:14:49;;;;;;;2.83;2.63;;;16.90;99.90;;;;;;5002689;28;20180;-84
2022/07/25 04:17:15;;;;;;;3.30;3.00;;;18.70;47.90;;;;;;5003093;28;20799;-83
2022/07/25 04:19:40;;;;;;;4.63;3.30;;;18.10;1.00;;;;;;5001308;28;20196;-83
2022/07/25 04:22:06;;;;;;;3.17;2.85;;;17.00;1.00;;;;;;5002821;28;20282;-82
2022/07/25 04:24:32;;;;;;;3.47;2.78;;;17.00;1.00;;;;;;5002802;28;20237;-84
2022/07/25 04:26:57;;;;;;;3.38;3.08;;;17.00;1.00;;;;;;5004232;28;20194;-85
2022/07/25 04:29:23;;;;;;;3.08;2.80;;;18.60;1.00;;;;;;5005535;28;20183;-85
2022/07/25 04:31:48;;;;;;;3.65;3.03;;;17.20;1.00;;;;;;5007908;28;20713;-83
2022/07/25 04:34:14;;;;;;;3.45;2.72;;;17.30;1.00;;;;;;5009384;28;20586;-83
2022/07/25 04:36:40;;;;;;;3.70;2.72;;;17.30;1.00;;;;;;5008387;28;20171;-83
2022/07/25 04:39:05;;;;;;;4.43;3.17;;;18.40;1.00;;;;;;5008404;28;20757;-82
2022/07/25 04:41:31;;;;;;;5.47;2.80;;;18.70;1.00;;;;;;5008296;28;20192;-85
2022/07/25 04:43:56;;;;;;;3.78;3.00;;;19.20;99.90;;;;;;5008915;28;20282;-81
2022/07/25 04:46:22;;;;;;;2.83;2.63;;;17.60;1.00;;;;;;5008219;28;20186;-83
2022/07/25 04:48:48;;;;;;;3.20;2.90;;;18.10;1.00;;;;;;5007443;28;20192;-82
2022/07/25 04:51:15;;;;;;;3.90;2.90;;;18.30;1.00;;;;;;5008555;28;20262;-84
2022/07/25 04:53:41;;;;;;;2.92;2.70;;;19.20;6.40;;;;;;5007699;28;20291;-83
2022/07/25 04:56:07;;;;;;;2.80;2.60;;;18.40;72.20;;;;;;5010074;28;20266;-83
2022/07/25 04:58:32;;;;;;;2.63;2.42;;;19.00;1.00;;;;;;5007790;28;20180;-84
2022/07/25 05:00:58;;;;;;;2.67;2.47;;;20.70;99.90;;;;;;5007754;28;20579;-82
2022/07/25 05:03:24;;;;;;;2.47;2.28;;;21.30;99.90;;;;;;5007703;28;20206;-83
2022/07/25 05:05:50;;;;;;;3.25;2.50;;;21.90;1.00;;;;;;5016675;28;20187;-82
2022/07/25 05:08:16;;;;;;;4.22;2.67;;;22.90;99.90;;;;;;5007516;28;20209;-85
2022/07/25 05:10:41;;;;;;;2.97;2.42;;;23.40;99.90;;;;;;5007456;28;20209;-85
2022/07/25 05:13:08;;;;;;;2.80;2.53;;;23.90;99.90;;;;;;5008847;28;20565;-83
2022/07/25 05:15:33;;;;;;;3.10;2.45;;;24.50;71.80;;;;;;5014888;28;20180;-85
2022/07/25 05:17:59;;;;;;;3.85;2.58;;;24.50;45.40;;;;;;5007383;28;20195;-83
2022/07/25 05:20:25;;;;;;;2.70;2.50;;;25.30;15.20;;;;;;5008422;28;20203;-83
2022/07/25 05:22:50;;;;;;;2.70;2.50;;;25.70;1.00;;;;;;5007289;28;20266;-83
2022/07/25 05:25:16;;;;;;;3.63;2.75;;;26.70;1.00;;;;;;5007965;28;20295;-84
2022/07/25 05:27:42;;;;;;;2.70;2.50;;;26.80;1.00;;;;;;5006680;28;20270;-83
2022/07/25 05:30:09;;;;;;;2.70;2.50;;;26.90;1.00;;;;;;5005647;28;20215;-83
2022/07/25 05:32:36;;;;;;;3.10;2.60;;;26.90;1.00;;;;;;5014808;28;20203;-83
2022/07/25 05:35:03;;;;;;;5.15;2.70;;;27.00;1.00;;;;;;5016576;28;20210;-82
2022/07/25 05:37:29;;;;;;;3.78;2.70;;;27.80;1.00;;;;;;5006594;28;20607;-83
2022/07/25 05:39:54;;;;;;;5.18;2.97;;;28.20;1.00;;;;;;5006095;28;20184;-83
2022/07/25 05:42:20;;;;;;;2.42;2.22;;;28.30;1.00;;;;;;5005971;28;20745;-83
2022/07/25 05:44:45;;;;;;;3.25;2.63;;;28.50;1.00;;;;;;5005966;28;20183;-82
2022/07/25 05:47:11;;;;;;;2.83;2.63;;;28.70;1.00;;;;;;5008245;28;20190;-84
2022/07/25 05:49:37;;;;;;;2.80;2.60;;;29.10;1.00;;;;;;5006025;28;20975;-83
2022/07/25 05:52:04;;;;;;;4.38;2.75;;;29.30;1.00;;;;;;5014345;28;20222;-83
2022/07/25 05:54:29;;;;;;;4.70;2.97;;;29.30;1.00;;;;;;5006469;28;20199;-83
2022/07/25 05:56:55;;;;;;;3.47;2.80;;;29.80;1.00;;;;;;5006194;28;20186;-83
2022/07/25 05:59:20;;;;;;;3.25;2.90;;;30.10;1.00;;;;;;5005849;28;20684;-83
2022/07/25 06:01:46;;;;;;;3.25;2.75;;;30.10;1.00;;;;;;5006424;28;20706;-83
2022/07/25 06:04:11;;;;;;;3.50;2.85;;;30.20;1.00;;;;;;5006487;28;20564;-83
2022/07/25 06:06:37;;;;;;;2.75;2.42;;;29.80;1.00;;;;;;5006724;28;20249;-83
2022/07/25 06:09:03;;;;;;;3.00;2.72;;;30.30;1.00;;;;;;5005463;28;20183;-83
2022/07/25 06:11:30;;;;;;;3.10;2.90;;;30.60;1.00;;;;;;5006307;28;20210;-82
2022/07/25 06:13:56;;;;;;;4.45;3.08;;;30.70;1.00;;;;;;5005642;28;20254;-83
2022/07/25 06:16:22;;;;;;;3.35;3.05;;;30.70;1.00;;;;;;5014557;28;20176;-83
2022/07/25 06:18:47;;;;;;;3.40;2.72;;;30.60;1.00;;;;;;5007312;28;20180;-83
2022/07/25 06:21:13;;;;;;;5.07;3.05;;;30.40;1.00;;;;;;5005096;28;20215;-79
2022/07/25 06:23:39;;;;;;;4.28;3.25;;;30.40;1.00;;;;;;5003725;28;20195;-79
2022/07/25 06:26:08;;;;;;;3.65;2.88;;;30.40;1.00;;;;;;5003878;28;20180;-80
2022/07/25 06:28:34;;;;;;;4.18;3.05;;;30.60;1.00;;;;;;5019493;28;20179;-79
2022/07/25 06:30:59;;;;;;;4.47;3.45;;;30.80;1.00;;;;;;5002336;28;20619;-80
2022/07/25 06:33:25;;;;;;;3.60;3.03;;;30.60;1.00;;;;;;5004209;28;20578;-77
2022/07/25 06:35:50;;;;;;;5.85;3.45;;;31.00;1.00;;;;;;5002412;28;20222;-78
2022/07/25 06:38:16;;;;;;;3.90;3.03;;;31.10;1.00;;;;;;5002734;28;20214;-79
2022/07/25 06:40:41;;;;;;;4.20;3.20;;;31.20;1.00;;;;;;5004021;28;20595;-80
2022/07/25 06:43:07;;;;;;;6.03;3.40;;;31.40;1.00;;;;;;5002103;28;20226;-78
2022/07/25 06:45:33;;;;;;;4.38;3.30;;;31.30;1.00;;;;;;5003060;28;20179;-80
2022/07/25 06:47:58;;;;;;;4.47;3.03;;;31.20;1.00;;;;;;5001785;28;20188;-79
2022/07/25 06:50:24;;;;;;;3.67;3.33;;;31.50;1.00;;;;;;5000712;28;20180;-79
2022/07/25 06:52:49;;;;;;;3.47;3.17;;;31.60;1.00;;;;;;5001506;28;20203;-81
2022/07/25 06:55:15;;;;;;;4.00;3.70;;;32.20;1.00;;;;;;5003050;28;20171;-78
2022/07/25 06:57:42;;;;;;;4.72;3.25;;;32.00;1.00;;;;;;5002393;28;20183;-78
2022/07/25 07:00:10;;;;;;;3.63;3.28;;;32.00;1.00;;;;;;5003377;28;20276;-82
2022/07/25 07:02:51;;;;;;;4.18;3.58;;;32.10;1.00;;;;;;5006230;28;20310;-80
2022/07/25 07:05:17;;;;;;;5.43;4.20;;;31.90;1.00;;;;;;5004125;28;20183;-80
2022/07/25 07:07:42;;;;;;;3.67;3.38;;;31.90;1.00;;;;;;5001947;28;20179;-80
2022/07/25 07:10:08;;;;;;;4.28;3.50;;;32.20;1.00;;;;;;5003564;28;20648;-79
2022/07/25 07:12:34;;;;;;;5.03;3.53;;;32.80;1.00;;;;;;5002342;28;20242;-80
2022/07/25 07:14:59;;;;;;;3.63;3.40;;;32.40;1.00;;;;;;5001355;28;20201;-78
2022/07/25 07:17:25;;;;;;;3.78;3.40;;;32.80;1.00;;;;;;5004085;28;20187;-80
2022/07/25 07:19:50;;;;;;;4.93;3.60;;;33.40;1.00;;;;;;5002666;28;20195;-80
2022/07/25 07:22:16;;;;;;;4.55;3.65;;;33.40;1.00;;;;;;5003400;28;20206;-80
2022/07/25 07:24:41;;;;;;;3.90;3.53;;;32.90;1.00;;;;;;5002496;28;20599;-79
2022/07/25 07:27:07;;;;;;;6.13;3.67;;;32.90;1.00;;;;;;5003902;28;20261;-80
2022/07/25 07:29:32;;;;;;;5.82;3.88;;;32.30;1.00;;;;;;5001381;28;20277;-79
2022/07/25 07:31:58;;;;;;;4.65;4.28;;;32.60;1.00;;;;;;5001734;28;20203;-77
2022/07/25 07:34:24;;;;;;;4.18;3.78;;;32.30;1.00;;;;;;5002742;28;20214;-86
2022/07/25 07:36:49;;;;;;;6.63;4.20;;;31.70;1.00;;;;;;5003381;28;20461;-85
2022/07/25 07:39:15;;;;;;;4.45;4.15;;;31.10;1.00;;;;;;5011182;28;20183;-84
2022/07/25 07:41:41;;;;;;;5.05;4.55;;;30.80;1.00;;;;;;5002361;28;20226;-84
2022/07/25 07:44:06;;;;;;;4.90;4.40;;;30.70;1.00;;;;;;5002370;28;20237;-82
2022/07/25 07:46:32;;;;;;;4.70;4.25;;;30.50;1.00;;;;;;5002814;28;20191;-82
2022/07/25 07:48:58;;;;;;;5.10;4.60;;;30.50;1.00;;;;;;5001513;28;20195;-84
2022/07/25 07:51:23;;;;;;;5.90;5.22;;;30.50;1.00;;;;;;5002281;28;21086;-84
2022/07/25 07:56:33;;;;;;;5.15;4.65;;;30.70;1.00;;;;;;5003633;28;20241;-83
2022/07/25 07:58:58;;;;;;;5.60;5.20;;;30.80;1.00;;;;;;5001508;28;20177;-84
2022/07/25 08:01:25;;;;;;;5.57;5.07;;;30.80;1.00;;;;;;5003585;28;20682;-83
2022/07/25 08:03:51;;;;;;;5.72;5.18;;;30.80;1.00;;;;;;5001523;28;20210;-83
2022/07/25 08:06:17;;;;;;;5.72;5.07;;;30.80;1.00;;;;;;5002561;28;20179;-82
2022/07/25 08:08:43;;;;;;;6.30;5.38;;;30.60;1.00;;;;;;5002783;28;20669;-78
2022/07/25 08:11:08;;;;;;;5.60;5.10;;;30.80;1.00;;;;;;5001878;28;20199;-78
2022/07/25 08:13:34;;;;;;;5.68;5.10;;;31.00;1.00;;;;;;5001883;28;20207;-79
2022/07/25 08:16:02;;;;;;;6.20;5.60;;;30.90;1.00;;;;;;5001233;28;20289;-79
2022/07/25 08:18:28;;;;;;;8.23;6.15;;;30.80;1.00;;;;;;5000943;28;20190;-79
2022/07/25 08:20:54;;;;;;;6.78;6.15;;;31.00;1.00;;;;;;5000879;28;20694;-78
2022/07/25 08:23:21;;;;;;;6.53;6.00;;;31.10;1.00;;;;;;5000938;28;20544;-79
2022/07/25 08:25:47;;;;;;;6.30;5.80;;;30.90;1.00;;;;;;5000774;28;20190;-76
2022/07/25 08:28:13;;;;;;;6.60;6.10;;;31.00;1.00;;;;;;5002758;28;20544;-79
2022/07/25 08:30:40;;;;;;;6.45;5.85;;;31.10;1.00;;;;;;5002546;28;20207;-78
2022/07/25 08:33:09;;;;;;;6.43;5.93;;;31.10;1.00;;;;;;5001822;28;20214;-78
2022/07/25 08:35:35;;;;;;;6.50;6.00;;;31.00;1.00;;;;;;5000759;28;20423;-79
2022/07/25 08:38:03;;;;;;;6.90;6.20;;;31.10;1.00;;;;;;5001796;28;20183;-78
2022/07/25 08:40:30;;;;;;;7.35;6.50;;;31.40;1.00;;;;;;5002116;28;20941;-79
2022/07/25 08:42:57;;;;;;;6.50;5.90;;;31.60;1.00;;;;;;5002170;28;20204;-78
2022/07/25 08:45:24;;;;;;;6.97;6.25;;;31.80;1.00;;;;;;5000885;28;20180;-79
2022/07/25 08:47:51;;;;;;;6.95;6.38;;;31.90;1.00;;;;;;5000555;28;20190;-79
2022/07/25 08:50:21;;;;;;;7.13;6.50;;;31.50;1.00;;;;;;5001874;28;20215;-77
2022/07/25 08:52:48;;;;;;;8.38;6.32;;;31.70;1.00;;;;;;5002067;28;20191;-79
2022/07/25 08:55:15;;;;;;;6.70;6.10;;;31.80;1.00;;;;;;5000860;28;20179;-79
2022/07/25 08:57:45;;;;;;;6.38;5.70;;;31.90;1.00;;;;;;5002233;28;20490;-79
2022/07/25 09:00:14;;;;;;;8.32;6.88;;;31.80;1.00;;;;;;5000320;28;20172;-79
2022/07/25 09:02:40;;;;;;;7.13;6.50;;;31.70;1.00;;;;;;5001612;28;20196;-78
2022/07/25 09:05:06;;;;;;;7.78;7.07;;;31.50;1.00;;;;;;5016845;28;20241;-80
2022/07/25 09:07:36;;;;;;;7.10;6.40;;;31.70;1.00;;;;;;5002147;28;20229;-79
2022/07/25 09:10:21;;;;;;;7.00;6.47;;;31.60;1.00;;;;;;4999992;28;20484;-79
2022/07/25 09:12:58;;;;;;;7.13;6.60;;;31.80;1.00;;;;;;5001621;28;20242;-77
2022/07/25 09:15:34;;;;;;;7.78;7.18;;;32.10;1.00;;;;;;5002274;28;20175;-80
2022/07/25 09:18:02;;;;;;;6.82;6.32;;;32.20;1.00;;;;;;5005355;28;20183;-79
2022/07/25 09:20:42;;;;;;;6.95;6.45;;;32.30;1.00;;;;;;5003520;28;20454;-79
2022/07/25 09:23:10;;;;;;;7.93;7.22;;;32.60;1.00;;;;;;5003719;28;20912;-79
2022/07/25 09:25:36;;;;;;;7.63;6.93;;;32.70;1.00;;;;;;5005440;28;20198;-79
2022/07/25 09:28:15;;;;;;;7.93;7.22;;;32.50;1.00;;;;;;5003865;28;20187;-80
2022/07/25 09:30:55;;;;;;;6.88;6.38;;;31.80;1.00;;;;;;5005709;28;20312;-83
2022/07/25 09:33:22;;;;;;;7.10;6.57;;;31.60;1.00;;;;;;5004214;28;20215;-83
2022/07/25 09:35:48;;;;;;;7.82;7.03;;;31.80;1.00;;;;;;5003790;28;20194;-83
2022/07/25 09:38:15;;;;;;;7.47;6.97;;;32.10;1.00;;;;;;5003839;28;20188;-83
2022/07/25 09:40:41;;;;;;;7.72;7.13;;;32.40;1.00;;;;;;5004061;28;20241;-85
2022/07/25 09:43:07;;;;;;;6.78;6.38;;;32.30;1.00;;;;;;5004250;28;20222;-83
2022/07/25 09:45:33;;;;;;;7.63;6.93;;;32.30;1.00;;;;;;5005498;28;20183;-86
2022/07/25 09:48:01;;;;;;;7.93;7.32;;;32.10;1.00;;;;;;5006173;28;20193;-85
2022/07/25 09:50:29;;;;;;;7.47;6.88;;;32.10;1.00;;;;;;5008041;28;20183;-84
2022/07/25 09:52:57;;;;;;;7.68;7.05;;;32.10;1.00;;;;;;5003308;28;20707;-85
2022/07/25 09:55:23;;;;;;;7.32;6.82;;;32.00;1.00;;;;;;5002456;28;20180;-86
2022/07/25 09:57:51;;;;;;;7.60;6.90;;;32.00;1.00;;;;;;5002579;28;20570;-84
2022/07/25 10:00:24;;;;;;;7.63;6.93;;;31.70;1.00;;;;;;5003593;28;21611;-82
2022/07/25 10:03:15;;;;;;;7.65;7.00;;;31.90;1.00;;;;;;5001854;28;20665;-82
2022/07/25 10:06:05;;;;;;;8.23;7.45;;;31.90;1.00;;;;;;5001780;28;20266;-84
2022/07/25 10:08:38;;;;;;;7.82;6.97;;;31.90;1.00;;;;;;5011076;28;20192;-84
2022/07/25 10:11:05;;;;;;;7.78;7.07;;;31.90;1.00;;;;;;5003473;28;20199;-85
2022/07/25 10:13:37;;;;;;;8.25;7.50;;;31.80;1.00;;;;;;5005178;28;20204;-86
2022/07/25 10:16:17;;;;;;;7.53;6.93;;;31.70;1.00;;;;;;5007194;28;20267;-86
2022/07/25 10:19:09;;;;;;;7.30;6.80;;;31.70;1.00;;;;;;5015725;28;20187;-83
2022/07/25 10:21:34;;;;;;;7.45;6.75;;;31.80;1.00;;;;;;5001594;28;20211;-83
2022/07/25 10:24:04;;;;;;;8.05;7.35;;;32.00;1.00;;;;;;5003517;28;20741;-86
2022/07/25 10:26:30;;;;;;;7.30;6.80;;;32.00;1.00;;;;;;5005412;28;20712;-83
2022/07/25 10:28:57;;;;;;;8.05;7.30;;;32.10;1.00;;;;;;5003406;28;20282;-85
2022/07/25 10:31:40;;;;;;;7.55;7.05;;;31.90;1.00;;;;;;5004194;28;20211;-81
2022/07/25 10:34:08;;;;;;;7.00;6.40;;;32.10;1.00;;;;;;5004904;28;20290;-84
2022/07/25 10:36:42;;;;;;;7.82;7.22;;;32.20;1.00;;;;;;5003950;28;20361;-85
2022/07/25 10:39:10;;;;;;;8.20;7.47;;;32.40;1.00;;;;;;5003485;28;20666;-85
2022/07/25 10:41:41;;;;;;;8.18;7.53;;;32.70;1.00;;;;;;5005300;28;20203;-87
2022/07/25 10:44:14;;;;;;;7.88;7.20;;;32.70;1.00;;;;;;5003257;28;20187;-85
2022/07/25 10:46:43;;;;;;;8.05;7.43;;;32.70;1.00;;;;;;5004103;28;20183;-83
2022/07/25 10:49:20;;;;;;;7.90;7.25;;;32.70;1.00;;;;;;5003547;28;20194;-83
2022/07/25 10:52:01;;;;;;;8.15;7.43;;;32.80;1.00;;;;;;5001464;28;20213;-83
2022/07/25 10:54:36;;;;;;;7.93;7.22;;;32.90;1.00;;;;;;5003991;28;20211;-85
2022/07/25 10:57:04;;;;;;;7.60;7.00;;;33.00;1.00;;;;;;5003546;28;20645;-83
2022/07/25 10:59:35;;;;;;;8.40;7.55;;;32.90;1.00;;;;;;5004638;28;20297;-82
2022/07/25 11:02:03;;;;;;;7.82;7.30;;;32.80;1.00;;;;;;5003689;28;20442;-85
2022/07/25 11:04:28;;;;;;;8.35;7.65;;;32.70;1.00;;;;;;5003779;28;20183;-84
2022/07/25 11:06:54;;;;;;;8.40;7.70;;;33.10;1.00;;;;;;5003493;28;20747;-83
2022/07/25 11:09:23;;;;;;;7.75;7.25;;;33.10;1.00;;;;;;5004120;28;20191;-83
2022/07/25 11:11:51;;;;;;;7.50;7.00;;;33.00;1.00;;;;;;5004236;28;20230;-84
2022/07/25 11:14:35;;;;;;;8.00;7.30;;;32.90;1.00;;;;;;5003087;28;20716;-85
2022/07/25 11:17:18;;;;;;;8.70;8.00;;;33.20;1.00;;;;;;5006188;28;20190;-84
2022/07/25 11:19:54;;;;;;;8.70;7.85;;;33.50;1.00;;;;;;5004078;28;20172;-83
2022/07/25 11:22:20;;;;;;;8.65;7.95;;;33.30;1.00;;;;;;5003613;28;20202;-82
2022/07/25 11:24:46;;;;;;;8.10;7.50;;;33.30;1.00;;;;;;5005434;28;20249;-83
2022/07/25 11:27:39;;;;;;;8.40;7.80;;;33.50;1.00;;;;;;5005608;28;20235;-84
2022/07/25 11:30:10;;;;;;;8.45;7.85;;;33.30;1.00;;;;;;5001813;28;20245;-85
2022/07/25 11:32:54;;;;;;;9.15;7.60;;;33.20;1.00;;;;;;5001667;28;20222;-81
2022/07/25 11:35:23;;;;;;;8.07;7.47;;;33.20;1.00;;;;;;5001717;28;20251;-84
2022/07/25 11:37:50;;;;;;;8.52;7.75;;;33.30;1.00;;;;;;5002869;28;20843;-82
2022/07/25 11:40:17;;;;;;;8.00;7.40;;;33.40;1.00;;;;;;5001840;28;20179;-81
2022/07/25 11:42:51;;;;;;;8.38;7.72;;;33.50;1.00;;;;;;5000797;28;20187;-85
2022/07/25 11:45:23;;;;;;;8.32;7.72;;;33.50;1.00;;;;;;5000826;28;20226;-83
2022/07/25 11:48:06;;;;;;;7.55;6.93;;;33.50;1.00;;;;;;5002710;28;20646;-84
2022/07/25 11:50:35;;;;;;;7.47;6.97;;;33.50;1.00;;;;;;5006910;28;20234;-84
2022/07/25 11:53:10;;;;;;;8.40;7.60;;;33.50;1.00;;;;;;5003017;28;20346;-84
2022/07/25 11:55:41;;;;;;;7.18;6.72;;;33.20;1.00;;;;;;5002840;28;20170;-77
2022/07/25 11:58:08;;;;;;;8.18;7.47;;;33.10;1.00;;;;;;5001317;28;20677;-83
2022/07/25 12:00:38;;;;;;;9.35;7.00;;;32.90;1.00;;;;;;5002775;28;20256;-86
2022/07/25 12:03:09;;;;;;;6.95;6.35;;;32.80;1.00;;;;;;5003536;28;20202;-86
2022/07/25 12:05:35;;;;;;;6.68;6.18;;;32.80;1.00;;;;;;5002854;28;20194;-84
2022/07/25 12:08:17;;;;;;;7.05;6.55;;;32.90;1.00;;;;;;5002501;28;20738;-85
2022/07/25 12:10:46;;;;;;;5.75;5.30;;;32.70;1.00;;;;;;5002314;28;20211;-87
2022/07/25 12:13:22;;;;;;;5.32;4.85;;;32.90;1.00;;;;;;5006187;28;20318;-86
2022/07/25 12:15:47;;;;;;;6.00;5.50;;;32.80;1.00;;;;;;5004056;28;20707;-87
2022/07/25 12:18:13;;;;;;;5.82;5.43;;;32.80;1.00;;;;;;5003297;28;20188;-84
2022/07/25 12:20:42;;;;;;;5.85;5.25;;;32.50;1.00;;;;;;5002108;28;20231;-82
2022/07/25 12:23:10;;;;;;;5.57;5.18;;;32.40;1.00;;;;;;5003878;28;20183;-86
2022/07/25 12:25:37;;;;;;;6.55;6.03;;;32.40;1.00;;;;;;5002372;28;20202;-83
2022/07/25 12:28:04;;;;;;;5.93;5.47;;;32.30;1.00;;;;;;5001905;28;20598;-81
2022/07/25 12:30:31;;;;;;;5.53;5.13;;;32.30;1.00;;;;;;5002003;28;20275;-85
2022/07/25 12:32:58;;;;;;;6.07;5.57;;;32.20;1.00;;;;;;5001736;28;20278;-84
2022/07/25 12:35:23;;;;;;;5.80;5.38;;;32.00;1.00;;;;;;5001637;28;20296;-85
2022/07/25 12:37:49;;;;;;;6.35;5.85;;;32.00;1.00;;;;;;5001496;28;20724;-85
2022/07/25 12:40:16;;;;;;;6.25;5.75;;;31.80;1.00;;;;;;5001860;28;20183;-88
2022/07/25 12:42:42;;;;;;;5.88;5.38;;;31.80;1.00;;;;;;5001866;28;20230;-85
2022/07/25 12:45:08;;;;;;;5.40;5.00;;;31.80;1.00;;;;;;5002040;28;20192;-85
2022/07/25 12:47:34;;;;;;;5.68;5.28;;;32.00;1.00;;;;;;5002402;28;20184;-86
2022/07/25 12:50:00;;;;;;;6.22;5.72;;;32.30;1.00;;;;;;5002661;28;20415;-85
2022/07/25 12:52:26;;;;;;;6.15;5.63;;;32.40;1.00;;;;;;5005288;28;20681;-82
2022/07/25 12:54:52;;;;;;;6.03;5.00;;;32.40;1.00;;;;;;5004842;28;20614;-82
2022/07/25 12:57:19;;;;;;;5.90;5.50;;;32.50;1.00;;;;;;5006915;28;20179;-82
2022/07/25 12:59:45;;;;;;;5.78;5.28;;;32.50;1.00;;;;;;5004509;28;20657;-81